sensor_id;sensor_type;location;lat;lon;timestamp;pressure;altitude;pressure_sealevel;temperature
57468;BMP280;43311;51.196;7.518;2023-09-18T00:01:36;96274.13;;;19.59
57468;BMP280;43311;51.196;7.518;2023-09-18T00:04:05;96253.34;;;19.63
57468;BMP280;43311;51.196;7.518;2023-09-18T00:06:30;96259.72;;;19.71
57468;BMP280;43311;51.196;7.518;2023-09-18T00:08:56;96252.50;;;19.77
57468;BMP280;43311;51.196;7.518;2023-09-18T00:11:21;96246.44;;;19.76
57468;BMP280;43311;51.196;7.518;2023-09-18T00:13:47;96245.50;;;19.79
57468;BMP280;43311;51.196;7.518;2023-09-18T00:16:13;96242.59;;;19.83
57468;BMP280;43311;51.196;7.518;2023-09-18T00:18:38;96226.41;;;19.81
57468;BMP280;43311;51.196;7.518;2023-09-18T00:21:04;96232.91;;;19.80
57468;BMP280;43311;51.196;7.518;2023-09-18T00:23:29;96229.53;;;19.79
57468;BMP280;43311;51.196;7.518;2023-09-18T00:25:55;96227.41;;;19.88
57468;BMP280;43311;51.196;7.518;2023-09-18T00:28:20;96220.63;;;19.88
57468;BMP280;43311;51.196;7.518;2023-09-18T00:30:49;96223.84;;;19.97
57468;BMP280;43311;51.196;7.518;2023-09-18T00:33:15;96218.44;;;19.86
57468;BMP280;43311;51.196;7.518;2023-09-18T00:35:45;96220.38;;;19.91
57468;BMP280;43311;51.196;7.518;2023-09-18T00:38:11;96194.97;;;19.85
57468;BMP280;43311;51.196;7.518;2023-09-18T00:40:36;96189.63;;;19.79
57468;BMP280;43311;51.196;7.518;2023-09-18T00:43:02;96195.19;;;19.81
57468;BMP280;43311;51.196;7.518;2023-09-18T00:45:28;96211.19;;;19.87
57468;BMP280;43311;51.196;7.518;2023-09-18T00:47:53;96186.13;;;19.98
57468;BMP280;43311;51.196;7.518;2023-09-18T00:50:20;96182.50;;;20.01
57468;BMP280;43311;51.196;7.518;2023-09-18T00:52:47;96179.34;;;20.03
57468;BMP280;43311;51.196;7.518;2023-09-18T00:55:12;96186.41;;;20.06
57468;BMP280;43311;51.196;7.518;2023-09-18T00:57:38;96174.03;;;20.03
57468;BMP280;43311;51.196;7.518;2023-09-18T01:00:04;96180.63;;;20.13
57468;BMP280;43311;51.196;7.518;2023-09-18T01:02:31;96166.09;;;20.08
57468;BMP280;43311;51.196;7.518;2023-09-18T01:04:57;96165.13;;;20.11
57468;BMP280;43311;51.196;7.518;2023-09-18T01:07:23;96171.19;;;20.12
57468;BMP280;43311;51.196;7.518;2023-09-18T01:09:48;96154.50;;;20.22
57468;BMP280;43311;51.196;7.518;2023-09-18T01:12:30;96159.38;;;20.24
57468;BMP280;43311;51.196;7.518;2023-09-18T01:15:12;96152.34;;;20.15
57468;BMP280;43311;51.196;7.518;2023-09-18T01:17:40;96165.16;;;20.22
57468;BMP280;43311;51.196;7.518;2023-09-18T01:20:10;96151.09;;;20.16
57468;BMP280;43311;51.196;7.518;2023-09-18T01:22:35;96157.34;;;20.08
57468;BMP280;43311;51.196;7.518;2023-09-18T01:25:01;96155.22;;;20.17
57468;BMP280;43311;51.196;7.518;2023-09-18T01:27:27;96158.38;;;20.10
57468;BMP280;43311;51.196;7.518;2023-09-18T01:29:54;96152.06;;;20.13
57468;BMP280;43311;51.196;7.518;2023-09-18T01:32:21;96157.66;;;20.15
57468;BMP280;43311;51.196;7.518;2023-09-18T01:34:50;96153.53;;;20.14
57468;BMP280;43311;51.196;7.518;2023-09-18T01:37:19;96157.88;;;20.12
57468;BMP280;43311;51.196;7.518;2023-09-18T01:39:48;96163.91;;;20.07
57468;BMP280;43311;51.196;7.518;2023-09-18T01:42:14;96148.53;;;19.91
57468;BMP280;43311;51.196;7.518;2023-09-18T01:44:41;96159.31;;;20.07
57468;BMP280;43311;51.196;7.518;2023-09-18T01:47:09;96143.56;;;20.04
57468;BMP280;43311;51.196;7.518;2023-09-18T01:49:37;96131.69;;;19.99
57468;BMP280;43311;51.196;7.518;2023-09-18T01:52:04;96147.16;;;19.95
57468;BMP280;43311;51.196;7.518;2023-09-18T01:54:30;96137.66;;;19.89
57468;BMP280;43311;51.196;7.518;2023-09-18T01:56:56;96119.94;;;19.75
57468;BMP280;43311;51.196;7.518;2023-09-18T01:59:23;96136.44;;;19.85
57468;BMP280;43311;51.196;7.518;2023-09-18T02:01:50;96141.03;;;19.84
57468;BMP280;43311;51.196;7.518;2023-09-18T02:04:17;96122.31;;;19.68
57468;BMP280;43311;51.196;7.518;2023-09-18T02:06:44;96122.16;;;19.82
57468;BMP280;43311;51.196;7.518;2023-09-18T02:09:10;96108.31;;;19.73
57468;BMP280;43311;51.196;7.518;2023-09-18T02:11:40;96119.00;;;19.84
57468;BMP280;43311;51.196;7.518;2023-09-18T02:14:07;96111.72;;;19.73
57468;BMP280;43311;51.196;7.518;2023-09-18T02:16:35;96109.78;;;19.74
57468;BMP280;43311;51.196;7.518;2023-09-18T02:19:02;96107.09;;;19.68
57468;BMP280;43311;51.196;7.518;2023-09-18T02:21:28;96097.88;;;19.64
57468;BMP280;43311;51.196;7.518;2023-09-18T02:23:53;96092.06;;;19.65
57468;BMP280;43311;51.196;7.518;2023-09-18T02:26:21;96081.94;;;19.69
57468;BMP280;43311;51.196;7.518;2023-09-18T02:28:46;96084.59;;;19.69
57468;BMP280;43311;51.196;7.518;2023-09-18T02:31:12;96072.78;;;19.76
57468;BMP280;43311;51.196;7.518;2023-09-18T02:33:38;96062.34;;;19.67
57468;BMP280;43311;51.196;7.518;2023-09-18T02:36:04;96068.66;;;19.75
57468;BMP280;43311;51.196;7.518;2023-09-18T02:38:29;96074.88;;;19.61
57468;BMP280;43311;51.196;7.518;2023-09-18T02:40:57;96070.84;;;19.71
57468;BMP280;43311;51.196;7.518;2023-09-18T02:43:23;96071.38;;;19.91
57468;BMP280;43311;51.196;7.518;2023-09-18T02:45:50;96077.28;;;20.06
57468;BMP280;43311;51.196;7.518;2023-09-18T02:48:16;96066.19;;;20.18
57468;BMP280;43311;51.196;7.518;2023-09-18T02:50:42;96066.69;;;20.39
57468;BMP280;43311;51.196;7.518;2023-09-18T02:53:16;96059.69;;;20.63
57468;BMP280;43311;51.196;7.518;2023-09-18T02:55:41;96059.25;;;20.81
57468;BMP280;43311;51.196;7.518;2023-09-18T02:58:07;96034.53;;;20.86
57468;BMP280;43311;51.196;7.518;2023-09-18T03:00:34;96040.34;;;20.90
57468;BMP280;43311;51.196;7.518;2023-09-18T03:03:00;96033.59;;;20.89
57468;BMP280;43311;51.196;7.518;2023-09-18T03:05:25;96020.75;;;20.82
57468;BMP280;43311;51.196;7.518;2023-09-18T03:07:51;96021.94;;;20.81
57468;BMP280;43311;51.196;7.518;2023-09-18T03:10:17;96008.63;;;20.81
57468;BMP280;43311;51.196;7.518;2023-09-18T03:12:47;96005.47;;;20.66
57468;BMP280;43311;51.196;7.518;2023-09-18T03:15:13;96004.25;;;20.67
57468;BMP280;43311;51.196;7.518;2023-09-18T03:17:39;96004.00;;;20.65
57468;BMP280;43311;51.196;7.518;2023-09-18T03:20:08;96000.88;;;20.61
57468;BMP280;43311;51.196;7.518;2023-09-18T03:22:34;95993.59;;;20.51
57468;BMP280;43311;51.196;7.518;2023-09-18T03:25:00;95991.66;;;20.46
57468;BMP280;43311;51.196;7.518;2023-09-18T03:27:25;95988.28;;;20.40
57468;BMP280;43311;51.196;7.518;2023-09-18T03:29:55;95999.63;;;20.40
57468;BMP280;43311;51.196;7.518;2023-09-18T03:32:21;95976.41;;;20.24
57468;BMP280;43311;51.196;7.518;2023-09-18T03:34:46;95962.09;;;20.16
57468;BMP280;43311;51.196;7.518;2023-09-18T03:37:12;95982.44;;;20.25
57468;BMP280;43311;51.196;7.518;2023-09-18T03:39:37;95981.72;;;20.13
57468;BMP280;43311;51.196;7.518;2023-09-18T03:42:03;95999.13;;;20.14
57468;BMP280;43311;51.196;7.518;2023-09-18T03:44:28;95966.69;;;19.99
57468;BMP280;43311;51.196;7.518;2023-09-18T03:46:54;95964.50;;;19.98
57468;BMP280;43311;51.196;7.518;2023-09-18T03:49:19;95950.47;;;19.97
57468;BMP280;43311;51.196;7.518;2023-09-18T03:51:45;95947.78;;;19.87
57468;BMP280;43311;51.196;7.518;2023-09-18T03:54:11;95957.69;;;19.86
57468;BMP280;43311;51.196;7.518;2023-09-18T03:56:36;95963.47;;;19.85
57468;BMP280;43311;51.196;7.518;2023-09-18T03:59:02;95970.50;;;19.77
57468;BMP280;43311;51.196;7.518;2023-09-18T04:01:27;95973.59;;;19.64
57468;BMP280;43311;51.196;7.518;2023-09-18T04:03:53;95971.66;;;19.65
57468;BMP280;43311;51.196;7.518;2023-09-18T04:06:21;95987.84;;;19.67
57468;BMP280;43311;51.196;7.518;2023-09-18T04:08:46;95977.97;;;19.67
57468;BMP280;43311;51.196;7.518;2023-09-18T04:11:12;95967.06;;;19.60
57468;BMP280;43311;51.196;7.518;2023-09-18T04:13:37;95966.59;;;19.61
57468;BMP280;43311;51.196;7.518;2023-09-18T04:16:04;95982.50;;;19.56
57468;BMP280;43311;51.196;7.518;2023-09-18T04:18:29;95976.22;;;19.48
57468;BMP280;43311;51.196;7.518;2023-09-18T04:20:55;95973.28;;;19.46
57468;BMP280;43311;51.196;7.518;2023-09-18T04:23:22;95971.13;;;19.44
57468;BMP280;43311;51.196;7.518;2023-09-18T04:25:50;95964.81;;;19.42
57468;BMP280;43311;51.196;7.518;2023-09-18T04:28:17;95980.03;;;19.36
57468;BMP280;43311;51.196;7.518;2023-09-18T04:30:46;95972.03;;;19.36
57468;BMP280;43311;51.196;7.518;2023-09-18T04:33:16;95952.66;;;19.24
57468;BMP280;43311;51.196;7.518;2023-09-18T04:35:43;95973.19;;;19.24
57468;BMP280;43311;51.196;7.518;2023-09-18T04:38:09;95961.09;;;19.23
57468;BMP280;43311;51.196;7.518;2023-09-18T04:40:41;95959.38;;;19.15
57468;BMP280;43311;51.196;7.518;2023-09-18T04:43:06;95945.34;;;19.09
57468;BMP280;43311;51.196;7.518;2023-09-18T04:45:32;95951.09;;;19.07
57468;BMP280;43311;51.196;7.518;2023-09-18T04:47:58;95950.84;;;19.05
57468;BMP280;43311;51.196;7.518;2023-09-18T04:50:23;95944.53;;;18.97
57468;BMP280;43311;51.196;7.518;2023-09-18T04:52:52;95938.91;;;18.90
57468;BMP280;43311;51.196;7.518;2023-09-18T04:55:19;95958.69;;;18.83
57468;BMP280;43311;51.196;7.518;2023-09-18T04:57:45;95950.72;;;18.83
57468;BMP280;43311;51.196;7.518;2023-09-18T05:00:10;95951.69;;;18.80
57468;BMP280;43311;51.196;7.518;2023-09-18T05:02:39;95931.38;;;18.77
57468;BMP280;43311;51.196;7.518;2023-09-18T05:05:06;95908.59;;;18.65
57468;BMP280;43311;51.196;7.518;2023-09-18T05:07:34;95923.59;;;18.68
57468;BMP280;43311;51.196;7.518;2023-09-18T05:09:59;95913.69;;;18.63
57468;BMP280;43311;51.196;7.518;2023-09-18T05:12:25;95905.16;;;18.54
57468;BMP280;43311;51.196;7.518;2023-09-18T05:14:50;95898.56;;;18.44
57468;BMP280;43311;51.196;7.518;2023-09-18T05:17:17;95914.53;;;18.50
57468;BMP280;43311;51.196;7.518;2023-09-18T05:19:43;95917.28;;;18.60
57468;BMP280;43311;51.196;7.518;2023-09-18T05:22:09;95918.66;;;18.51
57468;BMP280;43311;51.196;7.518;2023-09-18T05:24:40;95944.00;;;18.52
57468;BMP280;43311;51.196;7.518;2023-09-18T05:27:06;95944.72;;;18.52
57468;BMP280;43311;51.196;7.518;2023-09-18T05:29:33;95934.38;;;18.54
57468;BMP280;43311;51.196;7.518;2023-09-18T05:31:58;95933.34;;;18.46
57468;BMP280;43311;51.196;7.518;2023-09-18T05:34:24;95931.88;;;18.45
57468;BMP280;43311;51.196;7.518;2023-09-18T05:36:49;95937.94;;;18.46
57468;BMP280;43311;51.196;7.518;2023-09-18T05:39:15;95957.03;;;18.50
57468;BMP280;43311;51.196;7.518;2023-09-18T05:41:40;95963.94;;;18.42
57468;BMP280;43311;51.196;7.518;2023-09-18T05:44:06;95965.16;;;18.41
57468;BMP280;43311;51.196;7.518;2023-09-18T05:46:35;95974.56;;;18.42
57468;BMP280;43311;51.196;7.518;2023-09-18T05:49:04;95968.53;;;18.41
57468;BMP280;43311;51.196;7.518;2023-09-18T05:51:30;95978.69;;;18.43
57468;BMP280;43311;51.196;7.518;2023-09-18T05:53:56;95976.28;;;18.45
57468;BMP280;43311;51.196;7.518;2023-09-18T05:56:21;95967.13;;;18.46
57468;BMP280;43311;51.196;7.518;2023-09-18T05:58:49;95959.94;;;18.52
57468;BMP280;43311;51.196;7.518;2023-09-18T06:01:14;95966.88;;;18.44
57468;BMP280;43311;51.196;7.518;2023-09-18T06:03:40;95979.97;;;18.52
57468;BMP280;43311;51.196;7.518;2023-09-18T06:06:05;95980.41;;;18.46
57468;BMP280;43311;51.196;7.518;2023-09-18T06:08:31;95983.56;;;18.50
57468;BMP280;43311;51.196;7.518;2023-09-18T06:10:57;95981.88;;;18.47
57468;BMP280;43311;51.196;7.518;2023-09-18T06:13:26;95986.94;;;18.50
57468;BMP280;43311;51.196;7.518;2023-09-18T06:15:53;95979.25;;;18.52
57468;BMP280;43311;51.196;7.518;2023-09-18T06:18:21;95986.22;;;18.50
57468;BMP280;43311;51.196;7.518;2023-09-18T06:20:47;95989.34;;;18.48
57468;BMP280;43311;51.196;7.518;2023-09-18T06:23:13;95998.31;;;18.51
57468;BMP280;43311;51.196;7.518;2023-09-18T06:25:41;96009.63;;;18.51
57468;BMP280;43311;51.196;7.518;2023-09-18T06:28:07;95998.53;;;18.47
57468;BMP280;43311;51.196;7.518;2023-09-18T06:30:33;95995.59;;;18.45
57468;BMP280;43311;51.196;7.518;2023-09-18T06:33:02;96009.13;;;18.47
57468;BMP280;43311;51.196;7.518;2023-09-18T06:35:29;95990.94;;;18.35
57468;BMP280;43311;51.196;7.518;2023-09-18T06:37:55;96001.13;;;18.42
57468;BMP280;43311;51.196;7.518;2023-09-18T06:40:24;95985.44;;;18.44
57468;BMP280;43311;51.196;7.518;2023-09-18T06:42:50;95995.28;;;18.38
57468;BMP280;43311;51.196;7.518;2023-09-18T06:45:16;95994.66;;;18.48
57468;BMP280;43311;51.196;7.518;2023-09-18T06:47:42;95998.22;;;18.40
57468;BMP280;43311;51.196;7.518;2023-09-18T06:50:08;96017.38;;;18.49
57468;BMP280;43311;51.196;7.518;2023-09-18T06:52:34;96003.63;;;18.51
57468;BMP280;43311;51.196;7.518;2023-09-18T06:54:59;95997.25;;;18.43
57468;BMP280;43311;51.196;7.518;2023-09-18T06:57:25;96001.19;;;18.52
57468;BMP280;43311;51.196;7.518;2023-09-18T06:59:50;95999.03;;;18.51
57468;BMP280;43311;51.196;7.518;2023-09-18T07:02:16;96016.41;;;18.52
57468;BMP280;43311;51.196;7.518;2023-09-18T07:04:42;95996.34;;;18.46
57468;BMP280;43311;51.196;7.518;2023-09-18T07:07:14;96000.78;;;18.59
57468;BMP280;43311;51.196;7.518;2023-09-18T07:09:43;96004.19;;;18.60
57468;BMP280;43311;51.196;7.518;2023-09-18T07:12:08;96018.69;;;18.64
57468;BMP280;43311;51.196;7.518;2023-09-18T07:14:37;96000.28;;;18.55
57468;BMP280;43311;51.196;7.518;2023-09-18T07:17:04;96023.97;;;18.64
57468;BMP280;43311;51.196;7.518;2023-09-18T07:19:29;96026.81;;;18.55
57468;BMP280;43311;51.196;7.518;2023-09-18T07:21:55;96028.97;;;18.52
57468;BMP280;43311;51.196;7.518;2023-09-18T07:24:20;96029.47;;;18.55
57468;BMP280;43311;51.196;7.518;2023-09-18T07:26:47;96006.75;;;18.49
57468;BMP280;43311;51.196;7.518;2023-09-18T07:29:16;96016.41;;;18.52
57468;BMP280;43311;51.196;7.518;2023-09-18T07:31:44;96012.34;;;18.56
57468;BMP280;43311;51.196;7.518;2023-09-18T07:34:10;96010.38;;;18.52
57468;BMP280;43311;51.196;7.518;2023-09-18T07:36:36;96042.34;;;18.62
57468;BMP280;43311;51.196;7.518;2023-09-18T07:39:02;96041.34;;;18.60
57468;BMP280;43311;51.196;7.518;2023-09-18T07:41:29;96052.41;;;18.58
57468;BMP280;43311;51.196;7.518;2023-09-18T07:43:55;96051.00;;;18.57
57468;BMP280;43311;51.196;7.518;2023-09-18T07:46:22;96034.81;;;18.61
57468;BMP280;43311;51.196;7.518;2023-09-18T07:48:48;96046.00;;;18.70
57468;BMP280;43311;51.196;7.518;2023-09-18T07:51:13;96037.53;;;18.66
57468;BMP280;43311;51.196;7.518;2023-09-18T07:53:39;96040.00;;;18.75
57468;BMP280;43311;51.196;7.518;2023-09-18T07:56:05;96047.22;;;18.69
57468;BMP280;43311;51.196;7.518;2023-09-18T07:58:31;96052.56;;;18.75
57468;BMP280;43311;51.196;7.518;2023-09-18T08:00:59;96070.44;;;18.74
57468;BMP280;43311;51.196;7.518;2023-09-18T08:03:25;96073.78;;;18.69
57468;BMP280;43311;51.196;7.518;2023-09-18T08:05:52;96088.59;;;18.81
57468;BMP280;43311;51.196;7.518;2023-09-18T08:08:19;96085.44;;;18.77
57468;BMP280;43311;51.196;7.518;2023-09-18T08:10:48;96071.84;;;18.70
57468;BMP280;43311;51.196;7.518;2023-09-18T08:13:14;96081.28;;;18.71
57468;BMP280;43311;51.196;7.518;2023-09-18T08:15:39;96067.81;;;18.80
57468;BMP280;43311;51.196;7.518;2023-09-18T08:18:05;96052.78;;;19.02
57468;BMP280;43311;51.196;7.518;2023-09-18T08:20:30;96069.88;;;19.32
57468;BMP280;43311;51.196;7.518;2023-09-18T08:22:58;96071.38;;;19.38
57468;BMP280;43311;51.196;7.518;2023-09-18T08:25:26;96089.84;;;19.53
57468;BMP280;43311;51.196;7.518;2023-09-18T08:27:52;96082.81;;;19.50
57468;BMP280;43311;51.196;7.518;2023-09-18T08:30:17;96072.44;;;19.52
57468;BMP280;43311;51.196;7.518;2023-09-18T08:32:46;96080.91;;;19.56
57468;BMP280;43311;51.196;7.518;2023-09-18T08:35:12;96084.09;;;19.60
57468;BMP280;43311;51.196;7.518;2023-09-18T08:37:40;96086.22;;;19.50
57468;BMP280;43311;51.196;7.518;2023-09-18T08:40:06;96080.59;;;19.43
57468;BMP280;43311;51.196;7.518;2023-09-18T08:42:36;96074.22;;;19.29
57468;BMP280;43311;51.196;7.518;2023-09-18T08:45:08;96091.47;;;19.45
57468;BMP280;43311;51.196;7.518;2023-09-18T08:47:35;96096.84;;;19.50
57468;BMP280;43311;51.196;7.518;2023-09-18T08:50:01;96094.63;;;19.43
57468;BMP280;43311;51.196;7.518;2023-09-18T08:52:27;96087.56;;;19.40
57468;BMP280;43311;51.196;7.518;2023-09-18T08:54:53;96088.00;;;19.28
57468;BMP280;43311;51.196;7.518;2023-09-18T08:57:19;96097.69;;;19.31
57468;BMP280;43311;51.196;7.518;2023-09-18T08:59:48;96097.44;;;19.34
57468;BMP280;43311;51.196;7.518;2023-09-18T09:02:13;96088.97;;;19.30
57468;BMP280;43311;51.196;7.518;2023-09-18T09:04:39;96081.03;;;19.36
57468;BMP280;43311;51.196;7.518;2023-09-18T09:07:05;96089.38;;;19.54
57468;BMP280;43311;51.196;7.518;2023-09-18T09:09:30;96088.22;;;19.66
57468;BMP280;43311;51.196;7.518;2023-09-18T09:11:56;96086.84;;;19.82
57468;BMP280;43311;51.196;7.518;2023-09-18T09:14:23;96063.63;;;19.82
57468;BMP280;43311;51.196;7.518;2023-09-18T09:17:01;96078.97;;;20.03
57468;BMP280;43311;51.196;7.518;2023-09-18T09:19:33;96093.53;;;20.24
57468;BMP280;43311;51.196;7.518;2023-09-18T09:22:01;96092.31;;;20.14
57468;BMP280;43311;51.196;7.518;2023-09-18T09:27:02;96074.66;;;20.28
57468;BMP280;43311;51.196;7.518;2023-09-18T09:29:28;96100.06;;;20.23
57468;BMP280;43311;51.196;7.518;2023-09-18T09:31:55;96096.47;;;20.26
57468;BMP280;43311;51.196;7.518;2023-09-18T09:34:27;96089.41;;;20.23
57468;BMP280;43311;51.196;7.518;2023-09-18T09:36:56;96095.47;;;20.13
57468;BMP280;43311;51.196;7.518;2023-09-18T09:39:22;96088.91;;;20.08
57468;BMP280;43311;51.196;7.518;2023-09-18T09:41:53;96096.19;;;20.19
57468;BMP280;43311;51.196;7.518;2023-09-18T09:44:19;96083.91;;;20.43
57468;BMP280;43311;51.196;7.518;2023-09-18T09:46:50;96099.44;;;20.61
57468;BMP280;43311;51.196;7.518;2023-09-18T09:49:16;96103.31;;;20.60
57468;BMP280;43311;51.196;7.518;2023-09-18T09:51:45;96087.53;;;20.51
57468;BMP280;43311;51.196;7.518;2023-09-18T09:54:11;96092.88;;;20.57
57468;BMP280;43311;51.196;7.518;2023-09-18T09:56:48;96103.78;;;20.64
57468;BMP280;43311;51.196;7.518;2023-09-18T09:59:17;96100.16;;;20.61
57468;BMP280;43311;51.196;7.518;2023-09-18T10:01:47;96102.56;;;20.59
57468;BMP280;43311;51.196;7.518;2023-09-18T10:04:17;96096.03;;;20.60
57468;BMP280;43311;51.196;7.518;2023-09-18T10:06:57;96094.81;;;20.56
57468;BMP280;43311;51.196;7.518;2023-09-18T10:09:26;96095.28;;;20.44
57468;BMP280;43311;51.196;7.518;2023-09-18T10:11:54;96095.00;;;20.31
57468;BMP280;43311;51.196;7.518;2023-09-18T10:14:32;96105.94;;;20.49
57468;BMP280;43311;51.196;7.518;2023-09-18T10:17:06;96114.88;;;20.41
57468;BMP280;43311;51.196;7.518;2023-09-18T10:19:53;96107.59;;;20.30
57468;BMP280;43311;51.196;7.518;2023-09-18T10:24:55;96086.81;;;20.56
57468;BMP280;43311;51.196;7.518;2023-09-18T10:28:07;96095.53;;;20.51
57468;BMP280;43311;51.196;7.518;2023-09-18T10:31:01;96084.44;;;20.80
57468;BMP280;43311;51.196;7.518;2023-09-18T10:33:29;96078.38;;;20.85
57468;BMP280;43311;51.196;7.518;2023-09-18T10:35:55;96106.75;;;20.99
57468;BMP280;43311;51.196;7.518;2023-09-18T10:38:22;96083.69;;;21.29
57468;BMP280;43311;51.196;7.518;2023-09-18T10:40:52;96089.41;;;21.76
57468;BMP280;43311;51.196;7.518;2023-09-18T10:43:18;96090.81;;;21.94
57468;BMP280;43311;51.196;7.518;2023-09-18T10:45:45;96084.44;;;22.07
57468;BMP280;43311;51.196;7.518;2023-09-18T10:48:12;96095.16;;;21.97
57468;BMP280;43311;51.196;7.518;2023-09-18T10:50:39;96089.03;;;22.12
57468;BMP280;43311;51.196;7.518;2023-09-18T10:53:05;96095.38;;;22.04
57468;BMP280;43311;51.196;7.518;2023-09-18T10:55:31;96095.81;;;22.19
57468;BMP280;43311;51.196;7.518;2023-09-18T10:57:59;96102.97;;;21.89
57468;BMP280;43311;51.196;7.518;2023-09-18T11:00:26;96101.63;;;22.17
57468;BMP280;43311;51.196;7.518;2023-09-18T11:02:54;96111.44;;;21.93
57468;BMP280;43311;51.196;7.518;2023-09-18T11:05:32;96108.56;;;21.91
57468;BMP280;43311;51.196;7.518;2023-09-18T11:11:07;96102.81;;;21.43
57468;BMP280;43311;51.196;7.518;2023-09-18T11:13:45;96095.34;;;21.26
57468;BMP280;43311;51.196;7.518;2023-09-18T11:21:29;96114.25;;;21.17
57468;BMP280;43311;51.196;7.518;2023-09-18T11:23:59;96105.25;;;21.41
57468;BMP280;43311;51.196;7.518;2023-09-18T11:26:29;96090.44;;;21.51
57468;BMP280;43311;51.196;7.518;2023-09-18T11:28:55;96091.16;;;21.63
57468;BMP280;43311;51.196;7.518;2023-09-18T11:31:41;96096.28;;;21.44
57468;BMP280;43311;51.196;7.518;2023-09-18T11:34:15;96096.25;;;21.66
57468;BMP280;43311;51.196;7.518;2023-09-18T11:36:41;96091.19;;;22.19
57468;BMP280;43311;51.196;7.518;2023-09-18T11:39:06;96095.81;;;22.19
57468;BMP280;43311;51.196;7.518;2023-09-18T11:41:35;96082.50;;;22.08
57468;BMP280;43311;51.196;7.518;2023-09-18T11:46:39;96094.25;;;21.83
57468;BMP280;43311;51.196;7.518;2023-09-18T11:49:08;96088.41;;;21.85
57468;BMP280;43311;51.196;7.518;2023-09-18T11:51:36;96098.44;;;22.24
57468;BMP280;43311;51.196;7.518;2023-09-18T11:54:02;96090.09;;;22.44
57468;BMP280;43311;51.196;7.518;2023-09-18T11:56:29;96077.44;;;22.50
57468;BMP280;43311;51.196;7.518;2023-09-18T11:58:55;96074.97;;;22.58
57468;BMP280;43311;51.196;7.518;2023-09-18T12:01:21;96067.44;;;22.56
57468;BMP280;43311;51.196;7.518;2023-09-18T12:03:55;96074.88;;;22.34
57468;BMP280;43311;51.196;7.518;2023-09-18T12:06:21;96061.06;;;22.65
57468;BMP280;43311;51.196;7.518;2023-09-18T12:08:47;96062.09;;;22.56
57468;BMP280;43311;51.196;7.518;2023-09-18T12:11:13;96047.47;;;22.22
57468;BMP280;43311;51.196;7.518;2023-09-18T12:13:43;96065.84;;;21.91
57468;BMP280;43311;51.196;7.518;2023-09-18T12:16:08;96065.66;;;22.24
57468;BMP280;43311;51.196;7.518;2023-09-18T12:18:35;96059.63;;;22.64
57468;BMP280;43311;51.196;7.518;2023-09-18T12:21:05;96053.81;;;22.89
57468;BMP280;43311;51.196;7.518;2023-09-18T12:23:38;96045.03;;;22.65
57468;BMP280;43311;51.196;7.518;2023-09-18T12:26:04;96031.97;;;22.85
57468;BMP280;43311;51.196;7.518;2023-09-18T12:28:34;96025.78;;;23.25
57468;BMP280;43311;51.196;7.518;2023-09-18T12:31:00;96043.50;;;23.51
57468;BMP280;43311;51.196;7.518;2023-09-18T12:33:33;96014.88;;;23.65
57468;BMP280;43311;51.196;7.518;2023-09-18T12:35:59;96032.34;;;23.90
57468;BMP280;43311;51.196;7.518;2023-09-18T12:38:24;96034.19;;;23.82
57468;BMP280;43311;51.196;7.518;2023-09-18T12:40:55;96029.94;;;23.68
57468;BMP280;43311;51.196;7.518;2023-09-18T12:43:22;96013.25;;;23.38
57468;BMP280;43311;51.196;7.518;2023-09-18T12:45:48;96028.53;;;23.43
57468;BMP280;43311;51.196;7.518;2023-09-18T12:48:14;96020.38;;;23.30
57468;BMP280;43311;51.196;7.518;2023-09-18T12:50:41;96015.19;;;23.14
57468;BMP280;43311;51.196;7.518;2023-09-18T12:53:08;96009.56;;;23.17
57468;BMP280;43311;51.196;7.518;2023-09-18T12:55:34;96018.03;;;23.45
57468;BMP280;43311;51.196;7.518;2023-09-18T12:58:00;96019.56;;;23.59
57468;BMP280;43311;51.196;7.518;2023-09-18T13:00:30;96022.97;;;23.59
57468;BMP280;43311;51.196;7.518;2023-09-18T13:02:56;96025.84;;;23.43
57468;BMP280;43311;51.196;7.518;2023-09-18T13:05:23;96024.81;;;23.46
57468;BMP280;43311;51.196;7.518;2023-09-18T13:07:53;96022.41;;;23.66
57468;BMP280;43311;51.196;7.518;2023-09-18T13:10:19;96023.66;;;23.41
57468;BMP280;43311;51.196;7.518;2023-09-18T13:12:48;96033.09;;;23.24
57468;BMP280;43311;51.196;7.518;2023-09-18T13:15:29;96031.78;;;23.31
57468;BMP280;43311;51.196;7.518;2023-09-18T13:17:56;96028.66;;;23.32
57468;BMP280;43311;51.196;7.518;2023-09-18T13:20:31;96028.88;;;23.52
57468;BMP280;43311;51.196;7.518;2023-09-18T13:22:58;96029.84;;;23.55
57468;BMP280;43311;51.196;7.518;2023-09-18T13:28:00;96018.88;;;23.35
57468;BMP280;43311;51.196;7.518;2023-09-18T13:30:26;96026.34;;;23.18
57468;BMP280;43311;51.196;7.518;2023-09-18T13:33:04;96042.03;;;23.03
57468;BMP280;43311;51.196;7.518;2023-09-18T13:35:31;96029.78;;;22.83
57468;BMP280;43311;51.196;7.518;2023-09-18T13:37:57;96028.34;;;22.82
57468;BMP280;43311;51.196;7.518;2023-09-18T13:40:23;96030.16;;;22.98
57468;BMP280;43311;51.196;7.518;2023-09-18T13:42:49;96026.50;;;23.01
57468;BMP280;43311;51.196;7.518;2023-09-18T13:45:14;96033.81;;;22.95
57468;BMP280;43311;51.196;7.518;2023-09-18T13:47:42;96019.94;;;23.02
57468;BMP280;43311;51.196;7.518;2023-09-18T13:50:08;96017.50;;;22.99
57468;BMP280;43311;51.196;7.518;2023-09-18T13:52:35;96024.13;;;22.92
57468;BMP280;43311;51.196;7.518;2023-09-18T13:55:03;96008.41;;;23.13
57468;BMP280;43311;51.196;7.518;2023-09-18T13:57:32;96007.66;;;23.36
57468;BMP280;43311;51.196;7.518;2023-09-18T13:59:59;95997.66;;;23.18
57468;BMP280;43311;51.196;7.518;2023-09-18T14:02:25;96010.59;;;23.14
57468;BMP280;43311;51.196;7.518;2023-09-18T14:04:55;96004.84;;;22.99
57468;BMP280;43311;51.196;7.518;2023-09-18T14:07:21;96018.56;;;22.90
57468;BMP280;43311;51.196;7.518;2023-09-18T14:09:47;96021.19;;;22.96
57468;BMP280;43311;51.196;7.518;2023-09-18T14:12:13;96006.94;;;22.82
57468;BMP280;43311;51.196;7.518;2023-09-18T14:14:38;96008.06;;;22.69
57468;BMP280;43311;51.196;7.518;2023-09-18T14:17:05;96004.41;;;22.37
57468;BMP280;43311;51.196;7.518;2023-09-18T14:19:31;96002.34;;;22.19
57468;BMP280;43311;51.196;7.518;2023-09-18T14:21:57;95988.44;;;22.26
57468;BMP280;43311;51.196;7.518;2023-09-18T14:24:22;95987.47;;;22.29
57468;BMP280;43311;51.196;7.518;2023-09-18T14:26:53;95993.50;;;22.35
57468;BMP280;43311;51.196;7.518;2023-09-18T14:29:26;95979.50;;;22.18